Time,TemperatureF,DewpointF,PressureIn,WindDirection,WindDirectionDegrees,WindSpeedMPH,WindSpeedGustMPH,Humidity,HourlyPrecipIn,Conditions,Clouds,dailyrainin,SoftwareType,DateUTC
2013-07-13 00:14:00,68.0,67.4,29.85,SSE,157,0.0,-999.0,98,-99.99,,,0.00,Acu-Link.com,2013-07-13 04:14:00,
2013-07-13 00:29:00,67.8,67.2,29.86,NW,315,1.6,-999.0,98,-99.99,,,0.00,Acu-Link.com,2013-07-13 04:29:00,
2013-07-13 00:45:00,67.8,67.2,29.86,WNW,292,0.0,-999.0,98,-99.99,,,0.00,Acu-Link.com,2013-07-13 04:45:00,
2013-07-13 01:00:00,67.8,67.2,29.86,NW,315,0.0,-999.0,98,-99.99,,,0.00,Acu-Link.com,2013-07-13 05:00:00,
2013-07-13 01:15:00,67.6,67.1,29.86,NNE,22,1.1,-999.0,98,-99.99,,,0.00,Acu-Link.com,2013-07-13 05:15:00,
2013-07-13 01:30:00,67.8,67.2,29.86,NW,315,1.6,-999.0,98,-99.99,,,0.00,Acu-Link.com,2013-07-13 05:30:00,
2013-07-13 01:45:00,67.8,67.2,29.86,NNW,337,0.0,-999.0,98,-99.99,,,0.00,Acu-Link.com,2013-07-13 05:45:00,
2013-07-13 02:01:00,67.6,67.1,29.85,WNW,292,0.0,-999.0,98,-99.99,,,0.00,Acu-Link.com,2013-07-13 06:01:00,
2013-07-13 02:16:00,67.5,66.9,29.86,North,0,0.0,-999.0,98,-99.99,,,0.00,Acu-Link.com,2013-07-13 06:16:00,
2013-07-13 02:31:00,67.8,67.2,29.86,WNW,292,1.6,-999.0,98,-99.99,,,0.00,Acu-Link.com,2013-07-13 06:31:00,
2013-07-13 02:46:00,68.2,67.6,29.86,NE,45,1.1,-999.0,98,-99.99,,,0.00,Acu-Link.com,2013-07-13 06:46:00,
2013-07-13 03:01:00,68.4,67.8,29.86,West,270,0.0,-999.0,98,-99.99,,,0.00,Acu-Link.com,2013-07-13 07:01:00,
2013-07-13 03:17:00,68.5,68.0,29.85,NNW,337,1.1,-999.0,98,-99.99,,,0.00,Acu-Link.com,2013-07-13 07:17:00,
2013-07-13 03:32:00,68.0,67.4,29.85,NW,315,0.0,-999.0,98,-99.99,,,0.00,Acu-Link.com,2013-07-13 07:32:00,
2013-07-13 03:47:00,68.0,67.4,29.85,WSW,247,0.0,-999.0,98,-99.99,,,0.00,Acu-Link.com,2013-07-13 07:47:00,
2013-07-13 04:02:00,68.2,67.6,29.83,NNW,337,2.2,-999.0,98,-99.99,,,0.00,Acu-Link.com,2013-07-13 08:02:00,
2013-07-13 04:18:00,68.2,67.6,29.83,NW,315,0.0,-999.0,98,-99.99,,,0.00,Acu-Link.com,2013-07-13 08:18:00,
2013-07-13 04:33:00,68.4,67.8,29.84,WNW,292,1.6,-999.0,98,-99.99,,,0.00,Acu-Link.com,2013-07-13 08:33:00,
2013-07-13 04:48:00,68.5,68.0,29.84,NW,315,1.6,-999.0,98,-99.99,,,0.00,Acu-Link.com,2013-07-13 08:48:00,
2013-07-13 05:03:00,68.9,68.3,29.84,NNW,337,1.1,-999.0,98,-99.99,,,0.00,Acu-Link.com,2013-07-13 09:03:00,
2013-07-13 05:19:00,69.1,68.5,29.85,NW,315,2.2,-999.0,98,-99.99,,,0.00,Acu-Link.com,2013-07-13 09:19:00,
2013-07-13 05:34:00,69.1,68.5,29.85,West,270,2.7,-999.0,98,-99.99,,,0.00,Acu-Link.com,2013-07-13 09:34:00,
2013-07-13 05:49:00,69.1,68.5,29.85,NE,45,2.7,-999.0,98,-99.99,,,0.00,Acu-Link.com,2013-07-13 09:49:00,
2013-07-13 06:04:00,69.1,68.5,29.86,NW,315,1.1,-999.0,98,-99.99,,,0.00,Acu-Link.com,2013-07-13 10:04:00,
2013-07-13 06:19:00,69.1,68.5,29.86,WNW,292,1.1,-999.0,98,-99.99,,,0.00,Acu-Link.com,2013-07-13 10:19:00,
2013-07-13 06:34:00,68.7,68.1,29.87,WNW,292,1.6,-999.0,98,-99.99,,,0.00,Acu-Link.com,2013-07-13 10:34:00,
2013-07-13 06:50:00,68.7,68.1,29.88,NNE,22,3.1,-999.0,98,-99.99,,,0.00,Acu-Link.com,2013-07-13 10:50:00,
2013-07-13 07:05:00,68.5,68.0,29.88,NNE,22,1.6,-999.0,98,-99.99,,,0.00,Acu-Link.com,2013-07-13 11:05:00,
2013-07-13 07:20:00,68.5,68.0,29.89,East,90,2.7,-999.0,98,-99.99,,,0.00,Acu-Link.com,2013-07-13 11:20:00,
2013-07-13 07:35:00,68.5,68.0,29.89,WSW,247,2.7,-999.0,98,-99.99,,,0.00,Acu-Link.com,2013-07-13 11:35:00,
2013-07-13 07:50:00,68.5,68.0,29.89,NNE,22,1.6,-999.0,98,-99.99,,,0.00,Acu-Link.com,2013-07-13 11:50:00,
2013-07-13 08:06:00,68.9,68.3,29.90,NW,315,2.2,-999.0,98,-99.99,,,0.00,Acu-Link.com,2013-07-13 12:06:00,
2013-07-13 08:21:00,68.9,68.3,29.90,WNW,292,1.1,-999.0,98,-99.99,,,0.00,Acu-Link.com,2013-07-13 12:21:00,
2013-07-13 08:36:00,68.9,68.3,29.91,NE,45,2.7,-999.0,98,-99.99,,,0.00,Acu-Link.com,2013-07-13 12:36:00,
2013-07-13 08:51:00,69.1,68.5,29.92,ENE,67,1.6,-999.0,98,-99.99,,,0.00,Acu-Link.com,2013-07-13 12:51:00,
2013-07-13 09:06:00,69.1,68.5,29.92,North,0,2.7,-999.0,98,-99.99,,,0.00,Acu-Link.com,2013-07-13 13:06:00,
2013-07-13 09:22:00,68.9,68.3,29.93,NNW,337,3.1,-999.0,98,-99.99,,,0.00,Acu-Link.com,2013-07-13 13:22:00,
2013-07-13 09:37:00,69.6,69.0,29.93,NE,45,2.2,-999.0,98,-99.99,,,0.00,Acu-Link.com,2013-07-13 13:37:00,
2013-07-13 09:52:00,69.6,69.0,29.93,WNW,292,2.7,-999.0,98,-99.99,,,0.00,Acu-Link.com,2013-07-13 13:52:00,
2013-07-13 10:07:00,70.2,69.6,29.93,NNE,22,1.1,-999.0,98,-99.99,,,0.00,Acu-Link.com,2013-07-13 14:07:00,
2013-07-13 10:23:00,70.7,70.1,29.93,NNE,22,3.8,-999.0,98,-99.99,,,0.00,Acu-Link.com,2013-07-13 14:23:00,
2013-07-13 10:38:00,70.7,70.1,29.93,NNW,337,2.2,-999.0,98,-99.99,,,0.00,Acu-Link.com,2013-07-13 14:38:00,
2013-07-13 10:53:00,71.2,70.6,29.94,NNE,22,1.1,-999.0,98,-99.99,,,0.00,Acu-Link.com,2013-07-13 14:53:00,
2013-07-13 11:08:00,72.0,71.4,29.94,NNW,337,1.6,-999.0,98,-99.99,,,0.00,Acu-Link.com,2013-07-13 15:08:00,
2013-07-13 11:23:00,72.7,72.1,29.94,WNW,292,3.8,-999.0,98,-99.99,,,0.00,Acu-Link.com,2013-07-13 15:23:00,
2013-07-13 11:39:00,72.9,72.3,29.94,NE,45,1.6,-999.0,98,-99.99,,,0.00,Acu-Link.com,2013-07-13 15:39:00,
2013-07-13 11:54:00,72.3,71.7,29.95,NE,45,2.7,-999.0,98,-99.99,,,0.00,Acu-Link.com,2013-07-13 15:54:00,
2013-07-13 12:09:00,72.1,71.5,29.95,West,270,0.0,-999.0,98,-99.99,,,0.00,Acu-Link.com,2013-07-13 16:09:00,
2013-07-13 12:24:00,73.6,73.0,29.95,WNW,292,1.1,-999.0,98,-99.99,,,0.00,Acu-Link.com,2013-07-13 16:24:00,
2013-07-13 12:39:00,73.4,72.8,29.95,NE,45,2.2,-999.0,98,-99.99,,,0.00,Acu-Link.com,2013-07-13 16:39:00,
2013-07-13 12:54:00,74.5,73.9,29.95,North,0,2.7,-999.0,98,-99.99,,,0.00,Acu-Link.com,2013-07-13 16:54:00,
2013-07-13 13:10:00,78.1,75.2,29.94,ESE,112,2.7,-999.0,91,-99.99,,,0.00,Acu-Link.com,2013-07-13 17:10:00,
2013-07-13 13:26:00,81.5,76.5,29.95,East,90,2.7,-999.0,85,-99.99,,,0.00,Acu-Link.com,2013-07-13 17:26:00,
2013-07-13 13:41:00,83.7,76.1,29.93,NNW,337,2.2,-999.0,78,-99.99,,,0.00,Acu-Link.com,2013-07-13 17:41:00,
2013-07-13 13:56:00,82.6,75.0,29.93,North,0,2.2,-999.0,78,-99.99,,,0.00,Acu-Link.com,2013-07-13 17:56:00,
2013-07-13 14:11:00,82.6,75.8,29.93,NNW,337,1.6,-999.0,80,-99.99,,,0.00,Acu-Link.com,2013-07-13 18:11:00,
2013-07-13 14:26:00,82.9,75.4,29.93,NW,315,2.2,-999.0,78,-99.99,,,0.00,Acu-Link.com,2013-07-13 18:26:00,
2013-07-13 14:42:00,80.8,75.1,29.93,East,90,2.7,-999.0,83,-99.99,,,0.00,Acu-Link.com,2013-07-13 18:42:00,
2013-07-13 14:57:00,80.6,75.7,29.93,NE,45,1.1,-999.0,85,-99.99,,,0.00,Acu-Link.com,2013-07-13 18:57:00,
2013-07-13 15:12:00,78.3,74.4,29.93,NNW,337,1.1,-999.0,88,-99.99,,,0.00,Acu-Link.com,2013-07-13 19:12:00,
2013-07-13 15:27:00,80.2,75.3,29.92,SSW,202,4.7,-999.0,85,-99.99,,,0.00,Acu-Link.com,2013-07-13 19:27:00,
2013-07-13 15:43:00,80.4,75.1,29.92,NE,45,2.2,-999.0,84,-99.99,,,0.00,Acu-Link.com,2013-07-13 19:43:00,
2013-07-13 15:58:00,81.0,75.3,29.91,NE,45,3.1,-999.0,83,-99.99,,,0.00,Acu-Link.com,2013-07-13 19:58:00,
2013-07-13 16:13:00,79.5,75.3,29.91,NE,45,2.2,-999.0,87,-99.99,,,0.00,Acu-Link.com,2013-07-13 20:13:00,
2013-07-13 16:28:00,79.3,75.1,29.92,ESE,112,3.1,-999.0,87,-99.99,,,0.00,Acu-Link.com,2013-07-13 20:28:00,
2013-07-13 16:43:00,80.1,75.8,29.91,NNE,22,2.7,-999.0,87,-99.99,,,0.00,Acu-Link.com,2013-07-13 20:43:00,
2013-07-13 16:59:00,81.3,73.8,29.90,NNW,337,0.0,-999.0,78,-99.99,,,0.00,Acu-Link.com,2013-07-13 20:59:00,
2013-07-13 17:14:00,80.2,73.5,29.91,NNE,22,0.0,-999.0,80,-99.99,,,0.00,Acu-Link.com,2013-07-13 21:14:00,
2013-07-13 17:29:00,79.7,74.4,29.91,NE,45,2.2,-999.0,84,-99.99,,,0.00,Acu-Link.com,2013-07-13 21:29:00,
2013-07-13 17:44:00,79.0,74.8,29.91,NE,45,1.6,-999.0,87,-99.99,,,0.00,Acu-Link.com,2013-07-13 21:44:00,
2013-07-13 17:59:00,77.9,74.7,29.91,NNW,337,1.1,-999.0,90,-99.99,,,0.00,Acu-Link.com,2013-07-13 21:59:00,
2013-07-13 18:15:00,77.2,74.7,29.92,NW,315,1.6,-999.0,92,-99.99,,,0.00,Acu-Link.com,2013-07-13 22:15:00,
2013-07-13 18:30:00,76.8,74.6,29.92,NW,315,1.6,-999.0,93,-99.99,,,0.00,Acu-Link.com,2013-07-13 22:30:00,
2013-07-13 18:45:00,76.5,74.3,29.92,WNW,292,2.2,-999.0,93,-99.99,,,0.00,Acu-Link.com,2013-07-13 22:45:00,
2013-07-13 19:00:00,75.7,74.2,29.93,NNW,337,1.6,-999.0,95,-99.99,,,0.00,Acu-Link.com,2013-07-13 23:00:00,
2013-07-13 19:15:00,74.5,73.9,29.93,NNW,337,1.6,-999.0,98,-99.99,,,0.00,Acu-Link.com,2013-07-13 23:15:00,
2013-07-13 19:31:00,74.3,73.7,29.93,NW,315,0.0,-999.0,98,-99.99,,,0.00,Acu-Link.com,2013-07-13 23:31:00,
2013-07-13 19:46:00,74.1,73.5,29.92,WNW,292,2.2,-999.0,98,-99.99,,,0.00,Acu-Link.com,2013-07-13 23:46:00,
2013-07-13 20:01:00,73.8,73.2,29.92,North,0,2.2,-999.0,98,-99.99,,,0.00,Acu-Link.com,2013-07-14 00:01:00,
2013-07-13 20:16:00,73.4,72.8,29.92,NW,315,2.2,-999.0,98,-99.99,,,0.00,Acu-Link.com,2013-07-14 00:16:00,
2013-07-13 20:31:00,73.0,72.4,29.93,NW,315,2.2,-999.0,98,-99.99,,,0.00,Acu-Link.com,2013-07-14 00:31:00,
2013-07-13 20:47:00,72.9,72.3,29.93,WNW,292,1.6,-999.0,98,-99.99,,,0.00,Acu-Link.com,2013-07-14 00:47:00,
2013-07-13 21:02:00,72.7,72.1,29.94,WNW,292,1.6,-999.0,98,-99.99,,,0.00,Acu-Link.com,2013-07-14 01:02:00,
2013-07-13 21:17:00,72.3,71.7,29.93,East,90,1.1,-999.0,98,-99.99,,,0.00,Acu-Link.com,2013-07-14 01:17:00,
2013-07-13 21:32:00,72.0,71.4,29.94,North,0,0.0,-999.0,98,-99.99,,,0.00,Acu-Link.com,2013-07-14 01:32:00,
2013-07-13 21:48:00,71.8,71.2,29.95,WNW,292,1.1,-999.0,98,-99.99,,,0.00,Acu-Link.com,2013-07-14 01:48:00,
2013-07-13 22:03:00,71.6,71.0,29.94,West,270,0.0,-999.0,98,-99.99,,,0.00,Acu-Link.com,2013-07-14 02:03:00,
2013-07-13 22:18:00,71.4,70.8,29.95,North,0,1.6,-999.0,98,-99.99,,,0.00,Acu-Link.com,2013-07-14 02:18:00,
2013-07-13 22:33:00,71.2,70.6,29.95,NW,315,1.1,-999.0,98,-99.99,,,0.00,Acu-Link.com,2013-07-14 02:33:00,
2013-07-13 22:48:00,71.2,70.6,29.94,NNW,337,0.0,-999.0,98,-99.99,,,0.00,Acu-Link.com,2013-07-14 02:48:00,
2013-07-13 23:04:00,71.1,70.5,29.95,NNW,337,1.1,-999.0,98,-99.99,,,0.00,Acu-Link.com,2013-07-14 03:04:00,
2013-07-13 23:19:00,71.1,70.5,29.96,West,270,0.0,-999.0,98,-99.99,,,0.00,Acu-Link.com,2013-07-14 03:19:00,
2013-07-13 23:34:00,71.1,70.5,29.95,NW,315,1.1,-999.0,98,-99.99,,,0.00,Acu-Link.com,2013-07-14 03:34:00,
2013-07-13 23:49:00,70.9,70.3,29.96,West,270,0.0,-999.0,98,-99.99,,,0.00,Acu-Link.com,2013-07-14 03:49:00,